Time;durP1;ratioP1;P1;durP2;ratioP2;P2;SDS_P1;SDS_P2;PMS_P1;PMS_P2;Temp;Humidity;BMP_temperature;BMP_pressure;BME280_temperature;BME280_humidity;BME280_pressure;Samples;Min_cycle;Max_cycle;Signal;HPM_P1;HPM_P2
2022/07/20 00:00:51;;;;;;;7.55;5.53;;;21.80;60.90;;;;;;5039429;28;20075;-13
2022/07/20 00:03:17;;;;;;;8.80;5.47;;;21.70;61.10;;;;;;5039486;28;20036;-13
2022/07/20 00:05:45;;;;;;;6.55;5.10;;;21.70;60.80;;;;;;5039219;28;20021;-13
2022/07/20 00:08:11;;;;;;;6.70;5.10;;;21.70;60.80;;;;;;5039436;28;20022;-13
2022/07/20 00:13:23;;;;;;;6.50;4.88;;;21.60;60.80;;;;;;5039595;28;20493;-13
2022/07/20 00:15:49;;;;;;;8.40;5.72;;;21.60;60.60;;;;;;5038974;28;20051;-13
2022/07/20 00:18:17;;;;;;;6.43;5.15;;;21.60;61.20;;;;;;5038906;28;20492;-13
2022/07/20 00:20:44;;;;;;;8.43;5.43;;;21.50;61.80;;;;;;5037195;28;20049;-12
2022/07/20 00:23:10;;;;;;;7.47;5.45;;;21.50;62.60;;;;;;5035914;28;20029;-12
2022/07/20 00:25:36;;;;;;;9.00;6.38;;;21.40;63.80;;;;;;5036168;28;20040;-15
2022/07/20 00:28:02;;;;;;;8.55;6.20;;;21.30;64.50;;;;;;5035756;28;20471;-13
2022/07/20 00:30:28;;;;;;;11.07;7.05;;;21.30;64.30;;;;;;5035880;28;20034;-12
2022/07/20 00:32:55;;;;;;;6.88;5.10;;;21.20;63.80;;;;;;5035715;28;20377;-13
2022/07/20 00:35:21;;;;;;;10.90;6.13;;;21.20;63.30;;;;;;5035690;28;20075;-13
2022/07/20 00:37:46;;;;;;;8.27;5.35;;;21.20;63.20;;;;;;5035555;28;20042;-13
2022/07/20 00:40:14;;;;;;;10.27;5.75;;;21.20;63.00;;;;;;5035612;28;20033;-13
2022/07/20 00:42:41;;;;;;;11.88;6.30;;;21.30;62.90;;;;;;5035568;28;20029;-13
2022/07/20 00:45:09;;;;;;;8.98;5.72;;;21.30;62.80;;;;;;5035680;28;20036;-13
2022/07/20 00:47:35;;;;;;;8.43;5.45;;;21.40;62.70;;;;;;5035503;28;20032;-14
2022/07/20 00:50:01;;;;;;;7.75;5.20;;;21.30;62.70;;;;;;5035333;28;20029;-13
2022/07/20 00:52:27;;;;;;;10.25;6.90;;;21.40;62.70;;;;;;5035171;28;20069;-13
2022/07/20 00:54:53;;;;;;;11.18;6.45;;;21.40;62.70;;;;;;5035212;28;20057;-13
2022/07/20 00:57:20;;;;;;;9.88;5.45;;;21.40;62.80;;;;;;5035576;28;20029;-13
2022/07/20 00:59:46;;;;;;;9.50;5.70;;;21.30;62.70;;;;;;5035527;28;20033;-13
2022/07/20 01:02:13;;;;;;;7.22;5.15;;;21.40;62.70;;;;;;5035189;28;20057;-13
2022/07/20 01:04:39;;;;;;;8.52;6.43;;;21.40;62.80;;;;;;5035325;28;20444;-14
2022/07/20 01:07:06;;;;;;;11.77;6.93;;;21.40;62.90;;;;;;5035134;28;20033;-12
2022/07/20 01:09:32;;;;;;;9.52;5.85;;;21.40;63.20;;;;;;5035262;28;20029;-13
2022/07/20 01:11:58;;;;;;;9.40;6.30;;;21.40;63.30;;;;;;5034881;28;20362;-12
2022/07/20 01:14:24;;;;;;;9.10;6.10;;;21.30;63.10;;;;;;5034735;28;20493;-13
2022/07/20 01:16:50;;;;;;;10.02;6.47;;;21.40;63.40;;;;;;5035301;28;20036;-15
2022/07/20 01:19:16;;;;;;;8.60;6.05;;;21.30;63.30;;;;;;5035196;28;20112;-14
2022/07/20 01:21:42;;;;;;;8.93;5.75;;;21.30;63.30;;;;;;5034951;28;20489;-12
2022/07/20 01:24:10;;;;;;;7.47;5.63;;;21.30;63.50;;;;;;5034995;28;20042;-13
2022/07/20 01:26:38;;;;;;;9.23;5.97;;;21.30;63.70;;;;;;5034311;28;20569;-14
2022/07/20 01:29:04;;;;;;;10.35;6.85;;;21.30;63.80;;;;;;5034964;28;20037;-14
2022/07/20 01:31:30;;;;;;;10.32;6.40;;;21.30;64.00;;;;;;5034844;28;20385;-14
2022/07/20 01:33:56;;;;;;;10.18;7.47;;;21.30;64.50;;;;;;5034443;28;20029;-13
2022/07/20 01:36:22;;;;;;;12.40;9.30;;;21.20;65.10;;;;;;5034232;28;20024;-14
2022/07/20 01:38:48;;;;;;;12.15;8.65;;;21.10;65.50;;;;;;5034314;28;20072;-13
2022/07/20 01:41:14;;;;;;;10.70;7.63;;;21.10;65.40;;;;;;5034305;28;20528;-13
2022/07/20 01:43:40;;;;;;;8.85;6.88;;;21.00;65.40;;;;;;5034358;28;20022;-15
2022/07/20 01:46:06;;;;;;;10.73;6.97;;;20.90;65.60;;;;;;5034399;28;20052;-14
2022/07/20 01:48:32;;;;;;;13.45;7.60;;;20.90;65.60;;;;;;5032897;28;20056;-15
2022/07/20 01:50:58;;;;;;;10.25;7.35;;;20.90;65.80;;;;;;5032957;28;20041;-14
2022/07/20 01:53:24;;;;;;;10.98;7.68;;;20.90;65.90;;;;;;5034185;28;20026;-14
2022/07/20 01:55:52;;;;;;;11.52;7.88;;;20.90;66.20;;;;;;5034069;28;20018;-14
2022/07/20 01:58:18;;;;;;;11.23;8.52;;;20.90;66.30;;;;;;5033877;28;20033;-13
2022/07/20 02:00:44;;;;;;;10.98;9.35;;;20.90;66.30;;;;;;5034450;28;20393;-13
2022/07/20 02:03:10;;;;;;;12.70;8.80;;;20.90;66.40;;;;;;5033977;28;20021;-13
2022/07/20 02:05:36;;;;;;;11.85;9.20;;;20.90;66.50;;;;;;5034226;28;20037;-13
2022/07/20 02:08:02;;;;;;;10.27;6.85;;;20.90;66.70;;;;;;5034244;28;20087;-13
2022/07/20 02:10:28;;;;;;;13.30;8.57;;;20.90;67.10;;;;;;5032514;28;20033;-14
2022/07/20 02:12:54;;;;;;;11.57;7.43;;;20.90;67.10;;;;;;5034200;28;20064;-13
2022/07/20 02:18:07;;;;;;;10.23;8.13;;;20.90;67.10;;;;;;5034222;28;20064;-13
2022/07/20 02:20:34;;;;;;;8.45;6.05;;;20.90;67.00;;;;;;5033820;28;20090;-13
2022/07/20 02:23:01;;;;;;;10.38;6.80;;;20.90;67.00;;;;;;5033711;28;20033;-13
2022/07/20 02:25:27;;;;;;;8.30;6.22;;;20.90;67.20;;;;;;5033457;28;20060;-13
2022/07/20 02:27:53;;;;;;;8.80;6.40;;;20.90;67.10;;;;;;5032528;28;20025;-13
2022/07/20 02:30:20;;;;;;;7.25;5.28;;;20.90;67.10;;;;;;5033273;28;20507;-13
2022/07/20 02:32:46;;;;;;;9.07;5.95;;;20.90;67.20;;;;;;5033753;28;20389;-15
2022/07/20 02:35:12;;;;;;;9.82;7.15;;;20.90;67.30;;;;;;5033422;28;20026;-14
2022/07/20 02:37:38;;;;;;;12.63;6.68;;;20.90;67.30;;;;;;5032222;28;20058;-13
2022/07/20 02:40:05;;;;;;;8.95;6.10;;;20.90;67.50;;;;;;5033496;28;20396;-14
2022/07/20 02:42:31;;;;;;;10.77;7.70;;;20.80;67.70;;;;;;5033136;28;20440;-15
2022/07/20 02:44:56;;;;;;;7.85;5.70;;;20.80;67.80;;;;;;5032746;28;20026;-13
2022/07/20 02:47:23;;;;;;;10.02;6.15;;;20.80;68.10;;;;;;5033369;28;20021;-15
2022/07/20 02:49:49;;;;;;;11.27;7.15;;;20.80;68.30;;;;;;5033553;28;20045;-13
2022/07/20 02:52:15;;;;;;;15.13;8.60;;;20.70;68.50;;;;;;5033345;28;20033;-15
2022/07/20 02:54:41;;;;;;;10.15;6.20;;;20.70;68.90;;;;;;5033073;28;20382;-13
2022/07/20 02:57:07;;;;;;;7.50;5.45;;;20.70;68.50;;;;;;5033089;28;20029;-15
2022/07/20 02:59:33;;;;;;;8.63;5.55;;;20.70;68.50;;;;;;5033132;28;20025;-15
2022/07/20 03:01:58;;;;;;;8.15;6.07;;;20.60;68.60;;;;;;5033330;28;20500;-14
2022/07/20 03:04:24;;;;;;;9.57;6.22;;;20.60;68.60;;;;;;5032852;28;20056;-13
2022/07/20 03:06:50;;;;;;;8.38;5.95;;;20.60;68.70;;;;;;5033486;28;20041;-13
2022/07/20 03:09:16;;;;;;;7.72;5.82;;;20.50;68.90;;;;;;5033414;28;20079;-13
2022/07/20 03:11:42;;;;;;;8.45;6.15;;;20.40;68.90;;;;;;5033211;28;20032;-15
2022/07/20 03:14:09;;;;;;;10.32;6.32;;;20.40;69.20;;;;;;5033323;28;20384;-14
2022/07/20 03:16:35;;;;;;;10.07;7.45;;;20.40;69.60;;;;;;5033064;28;20034;-13
2022/07/20 03:19:01;;;;;;;13.27;8.18;;;20.40;69.70;;;;;;5033287;28;20381;-13
2022/07/20 03:21:26;;;;;;;9.95;6.78;;;20.30;69.90;;;;;;5032922;28;20385;-13
2022/07/20 03:23:53;;;;;;;10.48;7.03;;;20.30;70.40;;;;;;5033057;28;20033;-13
2022/07/20 03:26:21;;;;;;;14.15;7.03;;;20.30;70.30;;;;;;5032545;28;20034;-14
2022/07/20 03:28:47;;;;;;;10.63;6.47;;;20.30;70.40;;;;;;5033765;28;20067;-14
2022/07/20 03:31:13;;;;;;;12.05;7.57;;;20.20;70.60;;;;;;5033159;28;20025;-14
2022/07/20 03:33:39;;;;;;;10.32;6.80;;;20.20;70.70;;;;;;5033098;28;20547;-13
2022/07/20 03:36:05;;;;;;;13.15;7.93;;;20.20;70.70;;;;;;5032763;28;20033;-12
2022/07/20 03:38:31;;;;;;;10.50;7.13;;;20.20;70.40;;;;;;5032523;28;20073;-13
2022/07/20 03:40:57;;;;;;;10.73;6.80;;;20.20;70.40;;;;;;5033331;28;20385;-12
2022/07/20 03:43:25;;;;;;;10.27;6.43;;;20.20;70.50;;;;;;5032759;28;20032;-13
2022/07/20 03:45:52;;;;;;;10.82;6.63;;;20.20;70.50;;;;;;5032912;28;20065;-15
2022/07/20 03:48:18;;;;;;;10.50;8.18;;;20.20;70.30;;;;;;5031202;28;20025;-16
2022/07/20 03:50:46;;;;;;;14.60;8.38;;;20.20;70.50;;;;;;5032936;28;20017;-15
2022/07/20 03:53:13;;;;;;;11.82;9.18;;;20.30;70.50;;;;;;5032960;28;20029;-14
2022/07/20 03:55:39;;;;;;;11.00;7.43;;;20.30;70.50;;;;;;5032552;28;20025;-13
2022/07/20 03:58:05;;;;;;;10.60;6.72;;;20.30;70.60;;;;;;5036486;28;20074;-13
2022/07/20 04:00:31;;;;;;;10.80;6.63;;;20.30;70.80;;;;;;5036474;28;20116;-15
2022/07/20 04:02:57;;;;;;;9.88;6.78;;;20.40;70.60;;;;;;5036279;28;20396;-13
2022/07/20 04:05:23;;;;;;;10.93;7.25;;;20.40;70.70;;;;;;5036135;28;20396;-15
2022/07/20 04:07:49;;;;;;;11.38;8.13;;;20.40;70.70;;;;;;5036510;28;20022;-15
2022/07/20 04:10:15;;;;;;;10.88;6.32;;;20.40;71.20;;;;;;5034701;28;20385;-16
2022/07/20 04:12:41;;;;;;;9.73;6.75;;;20.40;70.90;;;;;;5034921;28;20076;-14
2022/07/20 04:15:07;;;;;;;7.03;5.53;;;20.40;70.90;;;;;;5036321;28;20059;-15
2022/07/20 04:17:34;;;;;;;11.02;7.18;;;20.40;70.70;;;;;;5036325;28;20034;-13
2022/07/20 04:19:59;;;;;;;12.15;6.20;;;20.50;71.20;;;;;;5035963;28;20022;-13
2022/07/20 04:22:28;;;;;;;8.38;6.63;;;20.50;70.80;;;;;;5036038;28;20037;-13
2022/07/20 04:24:54;;;;;;;14.30;9.27;;;20.50;70.50;;;;;;5035969;28;20030;-13
2022/07/20 04:27:20;;;;;;;12.10;7.88;;;20.60;70.30;;;;;;5036099;28;20382;-12
2022/07/20 04:29:46;;;;;;;13.85;8.40;;;20.60;70.30;;;;;;5035825;28;20037;-12
2022/07/20 04:32:11;;;;;;;15.73;9.32;;;20.70;70.40;;;;;;5035738;28;20029;-11
2022/07/20 04:34:37;;;;;;;10.90;8.70;;;20.80;70.40;;;;;;5035780;28;20025;-14
2022/07/20 04:37:03;;;;;;;12.30;8.70;;;20.80;70.90;;;;;;5035389;28;20021;-14
2022/07/20 04:39:29;;;;;;;12.13;7.95;;;20.90;70.40;;;;;;5035763;28;20076;-13
2022/07/20 04:41:55;;;;;;;9.98;7.65;;;20.90;70.30;;;;;;5035634;28;20535;-12
2022/07/20 04:44:20;;;;;;;12.18;7.55;;;21.00;69.90;;;;;;5034178;28;20034;-14
2022/07/20 04:46:47;;;;;;;11.27;8.15;;;21.00;69.80;;;;;;5035654;28;20108;-13
2022/07/20 04:49:13;;;;;;;10.05;7.03;;;21.10;69.50;;;;;;5034341;28;20025;-14
2022/07/20 04:51:39;;;;;;;11.68;8.65;;;21.20;69.30;;;;;;5034432;28;20025;-14
2022/07/20 04:54:05;;;;;;;11.10;7.40;;;21.30;69.10;;;;;;5035626;28;20032;-14
2022/07/20 04:56:31;;;;;;;8.57;6.32;;;21.40;69.00;;;;;;5034979;28;20021;-14
2022/07/20 04:58:57;;;;;;;13.65;7.15;;;21.50;68.60;;;;;;5035183;28;20358;-13
2022/07/20 05:01:23;;;;;;;12.45;9.07;;;21.50;68.30;;;;;;5034551;28;20044;-14
2022/07/20 05:03:49;;;;;;;13.73;7.28;;;21.70;68.20;;;;;;5035414;28;20032;-14
2022/07/20 05:06:15;;;;;;;14.20;8.40;;;21.80;68.00;;;;;;5033640;28;20041;-14
2022/07/20 05:08:42;;;;;;;11.27;7.20;;;21.90;67.80;;;;;;5034965;28;20443;-13
2022/07/20 05:11:08;;;;;;;9.25;6.45;;;21.90;67.60;;;;;;5035283;28;20501;-13
2022/07/20 05:13:34;;;;;;;12.10;7.30;;;22.00;67.40;;;;;;5035258;28;20064;-13
2022/07/20 05:16:00;;;;;;;14.82;8.98;;;22.10;67.20;;;;;;5035216;28;20362;-14
2022/07/20 05:18:27;;;;;;;14.15;8.75;;;22.20;67.20;;;;;;5033443;28;20036;-14
2022/07/20 05:20:53;;;;;;;14.02;9.45;;;22.40;66.90;;;;;;5035148;28;20025;-14
2022/07/20 05:23:19;;;;;;;16.17;9.23;;;22.50;66.60;;;;;;5035004;28;20029;-14
2022/07/20 05:25:44;;;;;;;13.45;8.20;;;22.50;66.60;;;;;;5034844;28;20128;-14
2022/07/20 05:28:11;;;;;;;13.65;8.80;;;22.70;66.50;;;;;;5034855;28;20029;-13
2022/07/20 05:30:37;;;;;;;11.60;7.68;;;22.80;66.30;;;;;;5034443;28;20060;-13
2022/07/20 05:33:03;;;;;;;10.98;8.32;;;22.90;65.80;;;;;;5034617;28;20029;-13
2022/07/20 05:35:29;;;;;;;11.52;7.70;;;23.10;65.50;;;;;;5034525;28;20125;-13
2022/07/20 05:37:55;;;;;;;11.48;8.05;;;23.20;65.40;;;;;;5034482;28;20053;-13
2022/07/20 05:40:21;;;;;;;16.17;8.88;;;23.30;65.20;;;;;;5034480;28;20052;-14
2022/07/20 05:42:47;;;;;;;13.10;8.93;;;23.40;64.90;;;;;;5035353;28;20053;-13
2022/07/20 05:45:13;;;;;;;13.80;8.57;;;23.50;64.70;;;;;;5034725;28;20363;-13
2022/07/20 05:47:39;;;;;;;13.45;9.18;;;23.70;64.60;;;;;;5034597;28;20030;-13
2022/07/20 05:50:05;;;;;;;12.07;8.95;;;23.80;64.50;;;;;;5034447;28;20469;-13
2022/07/20 05:52:32;;;;;;;14.18;10.38;;;23.90;64.30;;;;;;5034103;28;20065;-14
2022/07/20 05:54:57;;;;;;;14.93;8.95;;;24.00;64.00;;;;;;5034122;28;20079;-13
2022/07/20 05:57:23;;;;;;;13.23;9.70;;;24.10;63.80;;;;;;5034438;28;20025;-13
2022/07/20 05:59:49;;;;;;;12.40;8.75;;;24.20;63.60;;;;;;5034361;28;20021;-12
2022/07/20 06:02:15;;;;;;;12.57;8.85;;;24.30;63.30;;;;;;5034163;28;20079;-14
2022/07/20 06:04:41;;;;;;;18.67;9.15;;;24.40;63.00;;;;;;5034042;28;20400;-13
2022/07/20 06:07:07;;;;;;;16.55;9.00;;;24.50;62.60;;;;;;5033927;28;20116;-13
2022/07/20 06:09:33;;;;;;;14.60;8.25;;;24.70;62.30;;;;;;5034232;28;20025;-13
2022/07/20 06:11:59;;;;;;;13.80;8.00;;;24.80;61.80;;;;;;5034098;28;20545;-14
2022/07/20 06:14:25;;;;;;;11.73;7.50;;;24.90;61.40;;;;;;5033924;28;20036;-14
2022/07/20 06:16:51;;;;;;;16.65;7.90;;;25.00;60.70;;;;;;5033784;28;20109;-12
2022/07/20 06:19:17;;;;;;;11.65;6.97;;;25.20;60.30;;;;;;5033225;28;20057;-13
2022/07/20 06:21:43;;;;;;;10.88;7.68;;;25.30;59.80;;;;;;5033725;28;20536;-13
2022/07/20 06:24:09;;;;;;;14.68;8.57;;;25.50;59.40;;;;;;5033896;28;20028;-12
2022/07/20 06:26:35;;;;;;;10.23;7.20;;;25.60;59.00;;;;;;5033434;28;20032;-13
2022/07/20 06:29:01;;;;;;;15.77;7.57;;;25.80;58.50;;;;;;5033824;28;20033;-13
2022/07/20 06:31:26;;;;;;;14.70;9.45;;;26.00;57.80;;;;;;5033840;28;20167;-12
2022/07/20 06:33:52;;;;;;;15.43;9.70;;;26.20;57.30;;;;;;5032339;28;20481;-12
2022/07/20 06:36:18;;;;;;;12.55;8.80;;;26.40;56.60;;;;;;5033377;28;20480;-13
2022/07/20 06:38:45;;;;;;;11.93;8.80;;;26.60;55.00;;;;;;5033113;28;20640;-14
2022/07/20 06:41:11;;;;;;;12.13;8.15;;;26.90;53.40;;;;;;5033751;28;20049;-13
2022/07/20 06:43:37;;;;;;;11.10;7.75;;;27.10;52.70;;;;;;5033546;28;20362;-13
2022/07/20 06:46:03;;;;;;;11.52;8.32;;;27.20;52.50;;;;;;5033213;28;20037;-13
2022/07/20 06:48:29;;;;;;;12.68;8.57;;;27.30;52.30;;;;;;5033072;28;20033;-12
2022/07/20 06:50:55;;;;;;;13.07;8.60;;;27.40;51.80;;;;;;5032055;28;20033;-13
2022/07/20 06:53:21;;;;;;;12.32;8.40;;;27.60;50.90;;;;;;5031936;28;20030;-13
2022/07/20 06:55:47;;;;;;;11.60;8.20;;;27.80;50.60;;;;;;5033391;28;20044;-13
2022/07/20 06:58:13;;;;;;;9.95;7.97;;;27.90;50.70;;;;;;5033238;28;20085;-14
2022/07/20 07:00:39;;;;;;;10.98;7.50;;;28.10;50.30;;;;;;5033425;28;20030;-13
2022/07/20 07:03:05;;;;;;;13.02;8.07;;;28.30;50.10;;;;;;5033069;28;20030;-13
2022/07/20 07:05:31;;;;;;;12.85;7.57;;;28.50;49.60;;;;;;5033306;28;20033;-12
2022/07/20 07:07:58;;;;;;;10.90;7.70;;;28.60;49.30;;;;;;5031899;28;20021;-12
2022/07/20 07:10:25;;;;;;;14.27;8.02;;;28.80;48.70;;;;;;5032951;28;20025;-13
2022/07/20 07:12:51;;;;;;;11.52;7.25;;;28.90;48.10;;;;;;5033457;28;20017;-13
2022/07/20 07:15:18;;;;;;;11.73;7.82;;;29.00;48.30;;;;;;5033136;28;20013;-13
2022/07/20 07:17:43;;;;;;;11.50;7.22;;;29.20;47.40;;;;;;5032959;28;20068;-13
2022/07/20 07:20:10;;;;;;;10.35;7.25;;;29.40;47.40;;;;;;5032949;28;20057;-13
2022/07/20 07:22:36;;;;;;;14.60;9.10;;;29.50;46.80;;;;;;5032677;28;20520;-13
2022/07/20 07:25:03;;;;;;;13.40;8.10;;;29.70;45.00;;;;;;5032688;28;20026;-13
2022/07/20 07:27:29;;;;;;;11.68;7.75;;;29.80;43.90;;;;;;5033170;28;20026;-13
2022/07/20 07:29:55;;;;;;;16.05;9.00;;;30.00;44.40;;;;;;5033587;28;20496;-12
2022/07/20 07:32:21;;;;;;;11.82;8.30;;;30.20;43.80;;;;;;5036665;28;20095;-12
2022/07/20 07:34:47;;;;;;;9.95;7.65;;;30.30;43.90;;;;;;5037120;28;20038;-12
2022/07/20 07:37:12;;;;;;;11.90;7.50;;;30.40;43.60;;;;;;5036792;28;20072;-13
2022/07/20 07:39:38;;;;;;;13.75;8.45;;;30.70;43.50;;;;;;5037397;28;20397;-12
2022/07/20 07:42:04;;;;;;;14.55;8.07;;;30.80;43.30;;;;;;5036682;28;20393;-12
2022/07/20 07:44:30;;;;;;;12.25;7.85;;;30.90;43.20;;;;;;5036528;28;20072;-12
2022/07/20 07:46:56;;;;;;;10.70;7.80;;;31.00;42.90;;;;;;5036489;28;20029;-13
2022/07/20 07:49:22;;;;;;;12.73;8.02;;;31.10;42.60;;;;;;5036583;28;20030;-12
2022/07/20 07:51:48;;;;;;;9.82;6.90;;;31.10;42.70;;;;;;5035306;28;20114;-12
2022/07/20 07:54:14;;;;;;;10.60;7.03;;;31.10;42.80;;;;;;5036310;28;20040;-13
2022/07/20 07:56:41;;;;;;;17.92;8.15;;;31.20;42.70;;;;;;5036677;28;20030;-12
2022/07/20 07:59:07;;;;;;;10.70;7.65;;;31.40;42.50;;;;;;5037030;28;20025;-12
2022/07/20 08:01:36;;;;;;;11.18;8.00;;;31.60;41.90;;;;;;5036402;28;20029;-12
2022/07/20 08:04:04;;;;;;;16.67;7.65;;;31.90;40.80;;;;;;5036606;28;20025;-12
2022/07/20 08:06:30;;;;;;;11.43;7.22;;;31.90;41.30;;;;;;5036028;28;20025;-13
2022/07/20 08:08:57;;;;;;;10.85;7.50;;;32.20;40.90;;;;;;5036204;28;20493;-12
2022/07/20 08:11:24;;;;;;;22.88;7.45;;;32.40;40.40;;;;;;5036449;28;20039;-12
2022/07/20 08:13:50;;;;;;;27.90;8.48;;;32.50;38.90;;;;;;5036361;28;20025;-12
2022/07/20 08:16:16;;;;;;;14.93;7.05;;;32.70;39.60;;;;;;5035976;28;20032;-13
2022/07/20 08:18:42;;;;;;;16.05;6.75;;;32.90;38.20;;;;;;5036325;28;20026;-13
2022/07/20 08:21:08;;;;;;;11.88;6.55;;;33.00;36.80;;;;;;5036407;28;20022;-12
2022/07/20 08:23:34;;;;;;;12.63;6.47;;;33.20;37.30;;;;;;5036106;28;20026;-12
2022/07/20 08:26:00;;;;;;;9.45;5.90;;;33.40;36.70;;;;;;5035713;28;20041;-13
2022/07/20 08:28:26;;;;;;;9.02;5.20;;;33.60;36.20;;;;;;5035677;28;20033;-13
2022/07/20 08:30:53;;;;;;;12.55;5.45;;;33.80;35.20;;;;;;5035798;28;20103;-14
2022/07/20 08:33:19;;;;;;;9.73;5.45;;;34.00;34.70;;;;;;5035852;28;20022;-14
2022/07/20 08:35:46;;;;;;;8.50;5.53;;;34.30;34.10;;;;;;5035700;28;20485;-13
2022/07/20 08:38:13;;;;;;;8.00;4.82;;;34.40;33.20;;;;;;5035387;28;20068;-14
2022/07/20 08:40:39;;;;;;;6.15;4.65;;;34.60;33.80;;;;;;5035470;28;20021;-13
2022/07/20 08:43:05;;;;;;;8.57;4.95;;;34.90;33.40;;;;;;5034669;28;20029;-12
2022/07/20 08:45:33;;;;;;;9.23;4.53;;;35.10;32.50;;;;;;5035443;28;20033;-12
2022/07/20 08:48:03;;;;;;;9.32;4.55;;;35.30;32.70;;;;;;5035724;28;20121;-13
2022/07/20 08:50:31;;;;;;;7.78;4.60;;;35.40;32.30;;;;;;5035558;28;20045;-13
2022/07/20 08:52:58;;;;;;;8.13;5.07;;;35.50;32.30;;;;;;5035680;28;20038;-13
2022/07/20 08:55:26;;;;;;;8.27;5.10;;;35.60;32.10;;;;;;5035571;28;20091;-13
2022/07/20 08:57:52;;;;;;;7.05;5.25;;;35.90;31.80;;;;;;5035605;28;20029;-13
2022/07/20 09:00:18;;;;;;;7.93;4.85;;;36.10;31.20;;;;;;5035311;28;20048;-13
2022/07/20 09:02:52;;;;;;;9.55;5.18;;;36.30;31.40;;;;;;5035191;28;20036;-13
2022/07/20 09:05:20;;;;;;;8.75;5.05;;;36.50;30.90;;;;;;5035451;28;20036;-13
2022/07/20 09:07:49;;;;;;;7.68;4.50;;;36.90;30.20;;;;;;5035289;28;20109;-13
2022/07/20 09:10:25;;;;;;;7.43;4.30;;;37.10;29.40;;;;;;5035080;28;20018;-13
2022/07/20 09:12:51;;;;;;;7.00;3.80;;;37.20;28.10;;;;;;5034997;28;20544;-12
2022/07/20 09:15:40;;;;;;;4.53;3.70;;;37.40;27.50;;;;;;5034905;28;20026;-12
2022/07/20 09:18:20;;;;;;;6.18;3.90;;;37.40;27.50;;;;;;5035042;28;20516;-12
2022/07/20 09:20:50;;;;;;;5.03;3.95;;;37.30;27.50;;;;;;5035251;28;20057;-12
2022/07/20 09:23:48;;;;;;;8.20;4.47;;;37.60;28.40;;;;;;5035091;28;20079;-12
2022/07/20 09:26:16;;;;;;;6.47;3.85;;;37.70;27.50;;;;;;5034702;28;20041;-13
2022/07/20 09:28:49;;;;;;;6.55;3.70;;;37.90;28.50;;;;;;5035055;28;20032;-13
2022/07/20 09:31:21;;;;;;;5.15;4.07;;;38.00;27.40;;;;;;5035462;28;20056;-13
2022/07/20 09:34:09;;;;;;;5.80;3.75;;;38.30;27.20;;;;;;5034844;28;20021;-13
2022/07/20 09:36:38;;;;;;;4.32;3.40;;;38.40;26.90;;;;;;5034441;28;20022;-13
2022/07/20 09:39:15;;;;;;;7.93;3.95;;;38.50;26.60;;;;;;5034858;28;20076;-12
2022/07/20 09:41:44;;;;;;;5.05;3.72;;;38.70;25.80;;;;;;5034391;28;20018;-13
2022/07/20 09:44:21;;;;;;;7.68;3.85;;;38.90;25.60;;;;;;5034419;28;20043;-13
2022/07/20 09:46:47;;;;;;;6.40;4.07;;;38.90;25.80;;;;;;5034369;28;20095;-13
2022/07/20 09:49:13;;;;;;;7.25;3.60;;;38.90;25.40;;;;;;5034384;28;20033;-12
2022/07/20 09:51:41;;;;;;;6.00;3.83;;;38.90;26.40;;;;;;5034255;28;20021;-13
2022/07/20 09:54:13;;;;;;;7.10;3.80;;;39.10;26.10;;;;;;5034293;28;20025;-13
2022/07/20 09:56:44;;;;;;;5.70;3.55;;;39.10;26.40;;;;;;5034398;28;20108;-13
2022/07/20 09:59:12;;;;;;;6.55;3.90;;;39.30;26.20;;;;;;5034643;28;20029;-13
2022/07/20 10:01:41;;;;;;;5.10;3.75;;;39.50;25.90;;;;;;5034419;28;20025;-12
2022/07/20 10:04:09;;;;;;;4.88;3.78;;;39.70;25.50;;;;;;5034089;28;20025;-13
2022/07/20 10:06:38;;;;;;;5.20;3.97;;;39.70;25.50;;;;;;5033705;28;20044;-13
2022/07/20 10:09:06;;;;;;;7.18;4.13;;;39.60;25.50;;;;;;5034065;28;20026;-13
2022/07/20 10:11:33;;;;;;;6.60;4.07;;;39.40;25.90;;;;;;5034147;28;20025;-12
2022/07/20 10:14:03;;;;;;;5.38;4.35;;;39.20;25.70;;;;;;5034066;28;20041;-13
2022/07/20 10:16:29;;;;;;;6.25;3.95;;;39.20;26.30;;;;;;5033729;28;20036;-13
2022/07/20 10:18:57;;;;;;;9.75;4.40;;;39.50;25.90;;;;;;5034094;28;20038;-13
2022/07/20 10:21:52;;;;;;;6.45;3.85;;;39.80;25.40;;;;;;5033754;28;20032;-13
2022/07/20 10:24:20;;;;;;;4.93;3.50;;;40.00;25.60;;;;;;5033481;28;20432;-13
2022/07/20 10:26:48;;;;;;;3.83;3.42;;;40.30;25.10;;;;;;5033778;28;20370;-13
2022/07/20 10:29:38;;;;;;;7.50;3.63;;;40.60;24.80;;;;;;5033576;28;20022;-13
2022/07/20 10:32:21;;;;;;;7.85;3.63;;;40.80;23.80;;;;;;5033853;28;20569;-13
2022/07/20 10:34:57;;;;;;;4.75;3.47;;;40.90;24.00;;;;;;5033549;28;20417;-13
2022/07/20 10:37:28;;;;;;;5.88;3.00;;;41.00;24.20;;;;;;5033251;28;20077;-13
2022/07/20 10:40:05;;;;;;;5.00;3.22;;;41.10;23.60;;;;;;5033508;28;20064;-13
2022/07/20 10:42:45;;;;;;;5.07;3.58;;;41.40;24.20;;;;;;5032000;28;20032;-13
2022/07/20 10:45:14;;;;;;;4.97;3.83;;;41.40;23.90;;;;;;5033739;28;20029;-13
2022/07/20 10:47:45;;;;;;;5.75;3.58;;;41.40;24.00;;;;;;5033352;28;20034;-13
2022/07/20 10:50:35;;;;;;;6.13;3.90;;;41.50;23.30;;;;;;5033603;28;20025;-13
2022/07/20 10:53:10;;;;;;;5.65;3.53;;;41.40;23.80;;;;;;5033621;28;20039;-12
2022/07/20 10:55:36;;;;;;;5.88;3.65;;;41.50;24.10;;;;;;5033395;28;20030;-13
2022/07/20 10:58:13;;;;;;;7.80;4.28;;;41.80;24.20;;;;;;5033168;28;20520;-13
2022/07/20 11:00:44;;;;;;;6.53;3.75;;;42.00;23.40;;;;;;5033511;28;20096;-13
2022/07/20 11:03:35;;;;;;;7.45;3.90;;;42.20;23.90;;;;;;5033425;28;20398;-12
2022/07/20 11:06:19;;;;;;;5.43;3.90;;;42.50;23.20;;;;;;5032748;28;20030;-13
2022/07/20 11:09:00;;;;;;;7.25;3.95;;;42.80;23.10;;;;;;5033408;28;20037;-13
2022/07/20 11:11:29;;;;;;;7.15;4.00;;;42.90;22.90;;;;;;5033356;28;20025;-13
2022/07/20 11:13:56;;;;;;;5.63;3.70;;;43.10;22.40;;;;;;5033238;28;20026;-13
2022/07/20 11:16:24;;;;;;;4.78;3.35;;;43.30;22.30;;;;;;5033096;28;20024;-13
2022/07/20 11:18:52;;;;;;;6.18;3.80;;;43.50;22.50;;;;;;5033571;28;20037;-13
2022/07/20 11:21:34;;;;;;;5.68;3.90;;;43.70;22.10;;;;;;5033222;28;20056;-13
2022/07/20 11:24:00;;;;;;;6.18;3.70;;;43.50;22.00;;;;;;5033166;28;20029;-13
2022/07/20 11:26:26;;;;;;;7.13;3.38;;;43.50;22.40;;;;;;5032534;28;20091;-13
2022/07/20 11:28:55;;;;;;;5.90;3.50;;;43.70;22.60;;;;;;5032889;28;20030;-13
2022/07/20 11:31:29;;;;;;;5.32;3.33;;;44.10;22.00;;;;;;5033255;28;20022;-13
2022/07/20 11:33:59;;;;;;;5.15;3.30;;;44.50;22.00;;;;;;5032859;28;20040;-13
2022/07/20 11:36:36;;;;;;;6.43;3.80;;;44.80;22.00;;;;;;5032690;28;20040;-13
2022/07/20 11:39:08;;;;;;;4.40;3.30;;;44.90;21.60;;;;;;5032582;28;20060;-13
2022/07/20 11:41:38;;;;;;;7.15;3.92;;;45.00;21.50;;;;;;5033035;28;20022;-12
2022/07/20 11:44:07;;;;;;;5.65;3.47;;;45.30;21.50;;;;;;5032796;28;20021;-12
2022/07/20 11:46:39;;;;;;;5.28;4.13;;;45.40;21.30;;;;;;5032533;28;20617;-13
2022/07/20 11:49:08;;;;;;;5.93;3.65;;;45.60;20.60;;;;;;5033040;28;20040;-13
2022/07/20 11:51:36;;;;;;;4.57;3.63;;;45.80;21.10;;;;;;5032820;28;20021;-13
2022/07/20 11:54:06;;;;;;;5.05;3.20;;;45.90;21.10;;;;;;5032698;28;20029;-13
2022/07/20 11:56:35;;;;;;;4.15;3.30;;;46.00;20.80;;;;;;5032459;28;20037;-13
2022/07/20 11:59:05;;;;;;;3.88;3.10;;;46.10;20.50;;;;;;5032611;28;20028;-13
2022/07/20 12:01:36;;;;;;;6.55;3.22;;;46.20;20.70;;;;;;5033199;28;20025;-13
2022/07/20 12:04:07;;;;;;;7.10;3.53;;;46.50;20.20;;;;;;5032884;28;20389;-13
2022/07/20 12:06:36;;;;;;;5.03;3.60;;;46.60;19.60;;;;;;5032690;28;20132;-13
2022/07/20 12:09:15;;;;;;;7.55;4.03;;;46.70;20.10;;;;;;5032768;28;20060;-13
2022/07/20 12:11:59;;;;;;;4.32;3.30;;;46.70;19.40;;;;;;5032384;28;20512;-13
2022/07/20 12:14:36;;;;;;;3.85;3.30;;;46.70;19.70;;;;;;5032360;28;20381;-13
2022/07/20 12:17:15;;;;;;;6.53;3.03;;;46.40;20.10;;;;;;5031906;28;20072;-13
2022/07/20 12:19:42;;;;;;;5.45;3.28;;;46.40;20.40;;;;;;5036034;28;20033;-13
2022/07/20 12:22:17;;;;;;;4.57;3.10;;;46.50;20.00;;;;;;5036009;28;20057;-13
2022/07/20 12:24:50;;;;;;;6.93;3.60;;;46.80;19.80;;;;;;5035950;28;20503;-13
2022/07/20 12:27:18;;;;;;;4.80;3.40;;;46.80;19.70;;;;;;5036044;28;20120;-12
2022/07/20 12:29:44;;;;;;;3.63;3.28;;;46.80;20.10;;;;;;5036144;28;20021;-12
2022/07/20 12:32:10;;;;;;;5.57;3.60;;;47.00;19.90;;;;;;5034616;28;20064;-13
2022/07/20 12:34:54;;;;;;;4.65;3.25;;;47.20;19.50;;;;;;5034336;28;20021;-13
2022/07/20 12:37:21;;;;;;;4.22;3.60;;;47.30;19.70;;;;;;5035707;28;20072;-13
2022/07/20 12:39:53;;;;;;;6.43;3.33;;;47.50;19.20;;;;;;5035648;28;20022;-13
2022/07/20 12:42:27;;;;;;;4.90;3.38;;;47.60;18.90;;;;;;5035390;28;20017;-13
2022/07/20 12:45:01;;;;;;;3.80;3.10;;;47.60;19.20;;;;;;5035661;28;20036;-12
2022/07/20 12:47:28;;;;;;;4.57;3.60;;;47.60;19.00;;;;;;5035677;28;20026;-13
2022/07/20 12:49:54;;;;;;;7.57;3.47;;;47.60;19.30;;;;;;5035751;28;20036;-13
2022/07/20 12:52:20;;;;;;;5.55;3.45;;;47.70;19.20;;;;;;5035581;28;20381;-12